Arak, Iran
Current Conditions -  °F | °C
As of 5:00 PM on Saturday 25 Oct 2014 (Local Time) from OIHM Reporting Station
Clear Clear  
Wind Chill: 64°   Ceiling: Unl
Heat Index: 64°   Visibility: 6mi
Dew Point: 25°   Wind: 9mph
Humidity: 22%   Direction: 300°WNW
Pressure: 30.12"   Gusts: NA
Location:  34.1°N, 49.4°E
Report Text: OIHM 251400Z 30008KT CAVOK 18/M04 Q1020
Loading
Personal Weather Stations






























Interactive Weather Map
Tropical Storm Tracking
New forecast layout! Learn more

10-Day Weather Forecast

Advertisements
Track Severe Weather on mobile